sensor_id;sensor_type;location;lat;lon;timestamp;temperature;humidity
66752;SHT31;53663;42.676;23.238;2022-08-11T00:01:18;18.52;77.03
66752;SHT31;53663;42.676;23.238;2022-08-11T00:03:56;18.57;76.83
66752;SHT31;53663;42.676;23.238;2022-08-11T00:06:28;18.53;77.23
66752;SHT31;53663;42.676;23.238;2022-08-11T00:08:56;18.57;77.13
66752;SHT31;53663;42.676;23.238;2022-08-11T00:11:33;18.53;77.33
66752;SHT31;53663;42.676;23.238;2022-08-11T00:14:00;18.60;77.25
66752;SHT31;53663;42.676;23.238;2022-08-11T00:16:27;18.62;76.87
66752;SHT31;53663;42.676;23.238;2022-08-11T00:18:54;18.60;77.17
66752;SHT31;53663;42.676;23.238;2022-08-11T00:21:22;18.64;77.24
66752;SHT31;53663;42.676;23.238;2022-08-11T00:23:54;18.63;76.99
66752;SHT31;53663;42.676;23.238;2022-08-11T00:26:21;18.66;77.20
66752;SHT31;53663;42.676;23.238;2022-08-11T00:28:47;18.69;77.57
66752;SHT31;53663;42.676;23.238;2022-08-11T00:31:28;18.69;77.56
66752;SHT31;53663;42.676;23.238;2022-08-11T00:33:56;18.69;77.78
66752;SHT31;53663;42.676;23.238;2022-08-11T00:36:27;18.53;78.43
66752;SHT31;53663;42.676;23.238;2022-08-11T00:39:02;18.36;79.27
66752;SHT31;53663;42.676;23.238;2022-08-11T00:41:43;18.36;78.80
66752;SHT31;53663;42.676;23.238;2022-08-11T01:00:15;18.45;78.00
66752;SHT31;53663;42.676;23.238;2022-08-11T01:08:18;18.35;78.66
66752;SHT31;53663;42.676;23.238;2022-08-11T01:58:29;17.74;79.56
66752;SHT31;53663;42.676;23.238;2022-08-11T02:06:57;17.69;79.54
66752;SHT31;53663;42.676;23.238;2022-08-11T02:12:17;17.77;79.17
66752;SHT31;53663;42.676;23.238;2022-08-11T02:15:11;17.80;79.13
66752;SHT31;53663;42.676;23.238;2022-08-11T02:17:58;17.81;78.99
66752;SHT31;53663;42.676;23.238;2022-08-11T02:20:31;17.84;78.81
66752;SHT31;53663;42.676;23.238;2022-08-11T02:26:21;17.80;79.21
66752;SHT31;53663;42.676;23.238;2022-08-11T02:34:57;17.74;79.48
66752;SHT31;53663;42.676;23.238;2022-08-11T02:37:33;17.78;79.34
66752;SHT31;53663;42.676;23.238;2022-08-11T02:45:30;17.80;79.49
66752;SHT31;53663;42.676;23.238;2022-08-11T02:48:07;17.78;79.43
66752;SHT31;53663;42.676;23.238;2022-08-11T03:10:12;17.42;79.91
66752;SHT31;53663;42.676;23.238;2022-08-11T03:12:46;17.44;79.62
66752;SHT31;53663;42.676;23.238;2022-08-11T03:15:45;17.43;79.64
66752;SHT31;53663;42.676;23.238;2022-08-11T03:18:37;17.44;79.50
66752;SHT31;53663;42.676;23.238;2022-08-11T03:21:15;17.46;79.46
66752;SHT31;53663;42.676;23.238;2022-08-11T03:24:01;17.49;79.47
66752;SHT31;53663;42.676;23.238;2022-08-11T03:26:37;17.51;79.17
66752;SHT31;53663;42.676;23.238;2022-08-11T03:32:24;17.56;79.11
66752;SHT31;53663;42.676;23.238;2022-08-11T03:34:50;17.51;79.10
66752;SHT31;53663;42.676;23.238;2022-08-11T03:40:29;17.42;79.62
66752;SHT31;53663;42.676;23.238;2022-08-11T03:49:11;17.59;79.17
66752;SHT31;53663;42.676;23.238;2022-08-11T03:55:08;17.64;79.24
66752;SHT31;53663;42.676;23.238;2022-08-11T04:11:41;18.01;79.27
66752;SHT31;53663;42.676;23.238;2022-08-11T04:29:02;18.01;79.80
66752;SHT31;53663;42.676;23.238;2022-08-11T04:31:42;18.08;79.58
66752;SHT31;53663;42.676;23.238;2022-08-11T04:49:22;20.35;73.66
66752;SHT31;53663;42.676;23.238;2022-08-11T04:52:33;22.02;67.82
66752;SHT31;53663;42.676;23.238;2022-08-11T04:55:44;23.61;61.87
66752;SHT31;53663;42.676;23.238;2022-08-11T05:05:28;26.56;51.91
66752;SHT31;53663;42.676;23.238;2022-08-11T05:11:29;27.50;47.67
66752;SHT31;53663;42.676;23.238;2022-08-11T05:14:26;28.38;47.15
66752;SHT31;53663;42.676;23.238;2022-08-11T05:17:15;28.91;45.15
66752;SHT31;53663;42.676;23.238;2022-08-11T05:20:00;29.64;43.54
66752;SHT31;53663;42.676;23.238;2022-08-11T05:22:49;29.47;43.92
66752;SHT31;53663;42.676;23.238;2022-08-11T05:25:34;29.99;42.80
66752;SHT31;53663;42.676;23.238;2022-08-11T05:28:32;29.77;42.46
66752;SHT31;53663;42.676;23.238;2022-08-11T05:31:19;29.50;42.80
66752;SHT31;53663;42.676;23.238;2022-08-11T05:34:11;28.61;45.35
66752;SHT31;53663;42.676;23.238;2022-08-11T05:37:05;26.97;49.56
66752;SHT31;53663;42.676;23.238;2022-08-11T05:39:41;26.95;50.47
66752;SHT31;53663;42.676;23.238;2022-08-11T05:42:27;26.02;51.79
66752;SHT31;53663;42.676;23.238;2022-08-11T05:45:14;25.15;55.31
66752;SHT31;53663;42.676;23.238;2022-08-11T05:47:59;25.02;54.19
66752;SHT31;53663;42.676;23.238;2022-08-11T05:50:57;24.51;55.39
66752;SHT31;53663;42.676;23.238;2022-08-11T05:53:45;24.21;57.37
66752;SHT31;53663;42.676;23.238;2022-08-11T05:56:32;24.48;56.34
66752;SHT31;53663;42.676;23.238;2022-08-11T05:58:58;24.67;56.15
66752;SHT31;53663;42.676;23.238;2022-08-11T06:01:26;24.62;55.91
66752;SHT31;53663;42.676;23.238;2022-08-11T06:03:56;24.78;55.76
66752;SHT31;53663;42.676;23.238;2022-08-11T06:09:39;24.37;58.72
66752;SHT31;53663;42.676;23.238;2022-08-11T06:12:21;24.65;55.73
66752;SHT31;53663;42.676;23.238;2022-08-11T06:14:50;24.47;56.26
66752;SHT31;53663;42.676;23.238;2022-08-11T06:17:25;24.58;56.26
66752;SHT31;53663;42.676;23.238;2022-08-11T06:20:01;24.57;55.41
66752;SHT31;53663;42.676;23.238;2022-08-11T06:22:27;24.64;56.00
66752;SHT31;53663;42.676;23.238;2022-08-11T06:25:00;24.79;56.50
66752;SHT31;53663;42.676;23.238;2022-08-11T06:27:29;24.65;56.81
66752;SHT31;53663;42.676;23.238;2022-08-11T06:29:56;24.21;57.58
66752;SHT31;53663;42.676;23.238;2022-08-11T06:32:26;24.54;56.71
66752;SHT31;53663;42.676;23.238;2022-08-11T06:43:18;25.07;55.16
66752;SHT31;53663;42.676;23.238;2022-08-11T06:46:02;24.71;55.88
66752;SHT31;53663;42.676;23.238;2022-08-11T06:48:31;25.17;55.25
66752;SHT31;53663;42.676;23.238;2022-08-11T06:51:07;25.53;53.64
66752;SHT31;53663;42.676;23.238;2022-08-11T06:56:09;25.94;49.97
66752;SHT31;53663;42.676;23.238;2022-08-11T06:58:54;25.98;50.48
66752;SHT31;53663;42.676;23.238;2022-08-11T07:02:06;25.30;52.52
66752;SHT31;53663;42.676;23.238;2022-08-11T07:05:00;25.95;50.14
66752;SHT31;53663;42.676;23.238;2022-08-11T07:14:10;26.28;49.36
66752;SHT31;53663;42.676;23.238;2022-08-11T07:16:57;26.43;49.66
66752;SHT31;53663;42.676;23.238;2022-08-11T07:19:26;26.32;48.31
66752;SHT31;53663;42.676;23.238;2022-08-11T07:22:12;26.60;46.97
66752;SHT31;53663;42.676;23.238;2022-08-11T07:25:13;26.56;50.35
66752;SHT31;53663;42.676;23.238;2022-08-11T07:28:33;26.54;49.52
66752;SHT31;53663;42.676;23.238;2022-08-11T07:31:34;26.22;50.85
66752;SHT31;53663;42.676;23.238;2022-08-11T07:34:10;26.44;50.16
66752;SHT31;53663;42.676;23.238;2022-08-11T07:36:39;26.91;49.58
66752;SHT31;53663;42.676;23.238;2022-08-11T07:39:17;27.16;47.75
66752;SHT31;53663;42.676;23.238;2022-08-11T07:41:46;26.87;48.72
66752;SHT31;53663;42.676;23.238;2022-08-11T07:44:13;26.52;50.37
66752;SHT31;53663;42.676;23.238;2022-08-11T07:46:42;26.54;50.39
66752;SHT31;53663;42.676;23.238;2022-08-11T07:49:28;26.56;50.31
66752;SHT31;53663;42.676;23.238;2022-08-11T07:52:14;26.71;48.88
66752;SHT31;53663;42.676;23.238;2022-08-11T07:55:11;26.74;46.48
66752;SHT31;53663;42.676;23.238;2022-08-11T07:57:38;26.60;45.93
66752;SHT31;53663;42.676;23.238;2022-08-11T08:00:23;27.05;47.12
66752;SHT31;53663;42.676;23.238;2022-08-11T08:03:08;27.50;47.24
66752;SHT31;53663;42.676;23.238;2022-08-11T08:05:53;27.59;45.14
66752;SHT31;53663;42.676;23.238;2022-08-11T08:08:39;27.53;43.78
66752;SHT31;53663;42.676;23.238;2022-08-11T08:11:25;27.55;44.49
66752;SHT31;53663;42.676;23.238;2022-08-11T08:14:10;27.87;44.60
66752;SHT31;53663;42.676;23.238;2022-08-11T08:16:55;26.57;46.46
66752;SHT31;53663;42.676;23.238;2022-08-11T08:19:42;27.49;45.30
66752;SHT31;53663;42.676;23.238;2022-08-11T08:22:10;27.94;44.79
66752;SHT31;53663;42.676;23.238;2022-08-11T08:24:38;28.06;43.20
66752;SHT31;53663;42.676;23.238;2022-08-11T08:27:07;28.18;43.70
66752;SHT31;53663;42.676;23.238;2022-08-11T08:29:36;27.65;44.43
66752;SHT31;53663;42.676;23.238;2022-08-11T08:32:21;27.69;44.04
66752;SHT31;53663;42.676;23.238;2022-08-11T08:34:49;27.63;46.62
66752;SHT31;53663;42.676;23.238;2022-08-11T08:37:19;28.03;44.61
66752;SHT31;53663;42.676;23.238;2022-08-11T08:39:46;28.41;42.73
66752;SHT31;53663;42.676;23.238;2022-08-11T08:42:17;28.68;40.60
66752;SHT31;53663;42.676;23.238;2022-08-11T08:44:46;28.56;43.64
66752;SHT31;53663;42.676;23.238;2022-08-11T08:47:17;28.89;43.08
66752;SHT31;53663;42.676;23.238;2022-08-11T08:49:52;28.93;43.12
66752;SHT31;53663;42.676;23.238;2022-08-11T08:52:23;28.62;43.38
66752;SHT31;53663;42.676;23.238;2022-08-11T08:54:54;28.38;43.28
66752;SHT31;53663;42.676;23.238;2022-08-11T08:57:23;28.78;42.17
66752;SHT31;53663;42.676;23.238;2022-08-11T08:59:51;28.24;42.34
66752;SHT31;53663;42.676;23.238;2022-08-11T09:02:20;27.55;44.21
66752;SHT31;53663;42.676;23.238;2022-08-11T09:04:48;27.58;41.92
66752;SHT31;53663;42.676;23.238;2022-08-11T09:07:21;27.85;42.81
66752;SHT31;53663;42.676;23.238;2022-08-11T09:09:52;28.29;42.28
66752;SHT31;53663;42.676;23.238;2022-08-11T09:12:20;28.40;42.06
66752;SHT31;53663;42.676;23.238;2022-08-11T09:14:50;28.24;41.47
66752;SHT31;53663;42.676;23.238;2022-08-11T09:22:33;28.17;42.13
66752;SHT31;53663;42.676;23.238;2022-08-11T09:25:19;28.10;42.51
66752;SHT31;53663;42.676;23.238;2022-08-11T09:28:05;28.56;40.35
66752;SHT31;53663;42.676;23.238;2022-08-11T09:30:34;28.79;40.06
66752;SHT31;53663;42.676;23.238;2022-08-11T09:33:03;28.78;41.27
66752;SHT31;53663;42.676;23.238;2022-08-11T09:35:30;29.02;40.92
66752;SHT31;53663;42.676;23.238;2022-08-11T09:37:57;29.26;41.20
66752;SHT31;53663;42.676;23.238;2022-08-11T09:40:44;29.10;40.73
66752;SHT31;53663;42.676;23.238;2022-08-11T09:43:12;29.47;40.42
66752;SHT31;53663;42.676;23.238;2022-08-11T09:45:57;29.75;41.76
66752;SHT31;53663;42.676;23.238;2022-08-11T09:48:26;29.71;42.12
66752;SHT31;53663;42.676;23.238;2022-08-11T09:50:59;29.86;40.66
66752;SHT31;53663;42.676;23.238;2022-08-11T09:53:27;29.70;40.99
66752;SHT31;53663;42.676;23.238;2022-08-11T09:55:55;29.50;41.37
66752;SHT31;53663;42.676;23.238;2022-08-11T09:58:21;29.93;40.65
66752;SHT31;53663;42.676;23.238;2022-08-11T10:00:50;29.60;39.85
66752;SHT31;53663;42.676;23.238;2022-08-11T10:03:23;29.82;39.47
66752;SHT31;53663;42.676;23.238;2022-08-11T10:05:58;29.37;41.78
66752;SHT31;53663;42.676;23.238;2022-08-11T10:08:46;29.53;40.52
66752;SHT31;53663;42.676;23.238;2022-08-11T10:11:15;29.61;40.40
66752;SHT31;53663;42.676;23.238;2022-08-11T10:13:44;29.47;40.56
66752;SHT31;53663;42.676;23.238;2022-08-11T10:16:31;29.88;39.25
66752;SHT31;53663;42.676;23.238;2022-08-11T10:19:00;30.18;40.06
66752;SHT31;53663;42.676;23.238;2022-08-11T10:23:55;30.33;39.37
66752;SHT31;53663;42.676;23.238;2022-08-11T10:26:41;30.55;38.36
66752;SHT31;53663;42.676;23.238;2022-08-11T10:29:35;30.47;36.97
66752;SHT31;53663;42.676;23.238;2022-08-11T10:32:37;30.63;38.09
66752;SHT31;53663;42.676;23.238;2022-08-11T10:35:22;30.80;38.24
66752;SHT31;53663;42.676;23.238;2022-08-11T10:37:51;30.91;36.84
66752;SHT31;53663;42.676;23.238;2022-08-11T10:40:20;31.10;37.77
66752;SHT31;53663;42.676;23.238;2022-08-11T10:42:58;30.74;34.94
66752;SHT31;53663;42.676;23.238;2022-08-11T10:45:35;30.87;36.51
66752;SHT31;53663;42.676;23.238;2022-08-11T10:48:24;31.02;36.59
66752;SHT31;53663;42.676;23.238;2022-08-11T10:50:52;30.90;36.68
66752;SHT31;53663;42.676;23.238;2022-08-11T10:53:39;30.81;36.80
66752;SHT31;53663;42.676;23.238;2022-08-11T10:56:27;30.90;36.34
66752;SHT31;53663;42.676;23.238;2022-08-11T10:59:12;31.12;36.06
66752;SHT31;53663;42.676;23.238;2022-08-11T11:01:42;31.21;35.88
66752;SHT31;53663;42.676;23.238;2022-08-11T11:04:17;31.04;35.91
66752;SHT31;53663;42.676;23.238;2022-08-11T11:09:46;31.08;36.40
66752;SHT31;53663;42.676;23.238;2022-08-11T11:15:01;31.53;35.83
66752;SHT31;53663;42.676;23.238;2022-08-11T11:17:51;31.50;35.20
66752;SHT31;53663;42.676;23.238;2022-08-11T11:20:32;31.70;34.00
66752;SHT31;53663;42.676;23.238;2022-08-11T11:23:15;31.29;35.46
66752;SHT31;53663;42.676;23.238;2022-08-11T11:28:40;31.15;35.71
66752;SHT31;53663;42.676;23.238;2022-08-11T11:36:55;31.65;34.55
66752;SHT31;53663;42.676;23.238;2022-08-11T11:39:32;31.26;33.07
66752;SHT31;53663;42.676;23.238;2022-08-11T11:42:04;30.35;36.38
66752;SHT31;53663;42.676;23.238;2022-08-11T11:44:31;30.59;34.36
66752;SHT31;53663;42.676;23.238;2022-08-11T11:46:58;30.76;35.68
66752;SHT31;53663;42.676;23.238;2022-08-11T11:49:27;31.25;34.76
66752;SHT31;53663;42.676;23.238;2022-08-11T11:51:55;31.46;34.48
66752;SHT31;53663;42.676;23.238;2022-08-11T11:54:24;31.39;34.44
66752;SHT31;53663;42.676;23.238;2022-08-11T11:56:54;31.18;33.66
66752;SHT31;53663;42.676;23.238;2022-08-11T11:59:21;31.41;33.09
66752;SHT31;53663;42.676;23.238;2022-08-11T12:02:07;31.05;33.65
66752;SHT31;53663;42.676;23.238;2022-08-11T12:04:35;30.53;34.81
66752;SHT31;53663;42.676;23.238;2022-08-11T12:07:02;30.37;36.70
66752;SHT31;53663;42.676;23.238;2022-08-11T12:09:46;30.40;35.31
66752;SHT31;53663;42.676;23.238;2022-08-11T12:12:12;30.32;36.12
66752;SHT31;53663;42.676;23.238;2022-08-11T12:14:57;29.85;37.18
66752;SHT31;53663;42.676;23.238;2022-08-11T12:17:23;29.71;37.26
66752;SHT31;53663;42.676;23.238;2022-08-11T12:19:51;29.88;35.62
66752;SHT31;53663;42.676;23.238;2022-08-11T12:22:17;30.22;35.58
66752;SHT31;53663;42.676;23.238;2022-08-11T12:25:02;30.52;36.16
66752;SHT31;53663;42.676;23.238;2022-08-11T12:27:46;30.36;35.68
66752;SHT31;53663;42.676;23.238;2022-08-11T12:30:13;29.91;36.41
66752;SHT31;53663;42.676;23.238;2022-08-11T12:32:39;30.22;36.13
66752;SHT31;53663;42.676;23.238;2022-08-11T12:35:07;30.08;36.19
66752;SHT31;53663;42.676;23.238;2022-08-11T12:37:36;30.50;34.25
66752;SHT31;53663;42.676;23.238;2022-08-11T12:40:08;30.60;35.64
66752;SHT31;53663;42.676;23.238;2022-08-11T12:42:54;30.64;34.72
66752;SHT31;53663;42.676;23.238;2022-08-11T12:45:42;30.67;35.05
66752;SHT31;53663;42.676;23.238;2022-08-11T12:48:14;30.35;36.77
66752;SHT31;53663;42.676;23.238;2022-08-11T12:51:22;29.17;39.52
66752;SHT31;53663;42.676;23.238;2022-08-11T12:54:16;28.62;40.31
66752;SHT31;53663;42.676;23.238;2022-08-11T12:56:45;28.37;40.20
66752;SHT31;53663;42.676;23.238;2022-08-11T12:59:31;27.46;43.23
66752;SHT31;53663;42.676;23.238;2022-08-11T13:02:18;27.02;44.51
66752;SHT31;53663;42.676;23.238;2022-08-11T13:05:05;26.64;45.11
66752;SHT31;53663;42.676;23.238;2022-08-11T13:07:31;26.44;46.00
66752;SHT31;53663;42.676;23.238;2022-08-11T13:10:00;26.59;46.08
66752;SHT31;53663;42.676;23.238;2022-08-11T13:12:28;26.47;46.33
66752;SHT31;53663;42.676;23.238;2022-08-11T13:17:40;26.39;45.21
66752;SHT31;53663;42.676;23.238;2022-08-11T13:20:09;26.53;45.04
66752;SHT31;53663;42.676;23.238;2022-08-11T13:22:38;26.74;44.69
66752;SHT31;53663;42.676;23.238;2022-08-11T13:25:06;26.57;44.70
66752;SHT31;53663;42.676;23.238;2022-08-11T13:27:32;26.50;43.90
66752;SHT31;53663;42.676;23.238;2022-08-11T13:29:59;26.50;45.30
66752;SHT31;53663;42.676;23.238;2022-08-11T13:32:44;26.80;43.80
66752;SHT31;53663;42.676;23.238;2022-08-11T13:35:12;26.73;43.34
66752;SHT31;53663;42.676;23.238;2022-08-11T13:37:41;26.60;44.06
66752;SHT31;53663;42.676;23.238;2022-08-11T13:40:10;26.46;44.17
66752;SHT31;53663;42.676;23.238;2022-08-11T13:42:39;26.52;44.04
66752;SHT31;53663;42.676;23.238;2022-08-11T13:45:06;26.28;44.63
66752;SHT31;53663;42.676;23.238;2022-08-11T13:47:34;25.89;45.85
66752;SHT31;53663;42.676;23.238;2022-08-11T13:50:01;26.29;45.05
66752;SHT31;53663;42.676;23.238;2022-08-11T13:52:27;26.42;44.53
66752;SHT31;53663;42.676;23.238;2022-08-11T13:54:53;26.54;43.63
66752;SHT31;53663;42.676;23.238;2022-08-11T13:57:20;26.53;43.71
66752;SHT31;53663;42.676;23.238;2022-08-11T13:59:52;26.25;44.28
66752;SHT31;53663;42.676;23.238;2022-08-11T14:02:26;26.36;44.93
66752;SHT31;53663;42.676;23.238;2022-08-11T14:05:00;26.47;43.60
66752;SHT31;53663;42.676;23.238;2022-08-11T14:07:34;26.56;44.43
66752;SHT31;53663;42.676;23.238;2022-08-11T14:10:05;26.74;42.61
66752;SHT31;53663;42.676;23.238;2022-08-11T14:12:33;26.40;43.70
66752;SHT31;53663;42.676;23.238;2022-08-11T14:15:20;26.54;43.56
66752;SHT31;53663;42.676;23.238;2022-08-11T14:17:51;26.70;43.22
66752;SHT31;53663;42.676;23.238;2022-08-11T14:20:19;26.71;42.02
66752;SHT31;53663;42.676;23.238;2022-08-11T14:22:45;26.74;42.43
66752;SHT31;53663;42.676;23.238;2022-08-11T14:25:14;26.65;42.59
66752;SHT31;53663;42.676;23.238;2022-08-11T14:27:43;26.77;42.40
66752;SHT31;53663;42.676;23.238;2022-08-11T14:30:09;26.76;43.16
66752;SHT31;53663;42.676;23.238;2022-08-11T14:32:55;26.84;41.93
66752;SHT31;53663;42.676;23.238;2022-08-11T14:35:22;27.01;41.43
66752;SHT31;53663;42.676;23.238;2022-08-11T14:37:48;27.01;41.21
66752;SHT31;53663;42.676;23.238;2022-08-11T14:40:15;26.94;40.98
66752;SHT31;53663;42.676;23.238;2022-08-11T14:43:01;26.83;40.98
66752;SHT31;53663;42.676;23.238;2022-08-11T14:45:45;26.49;41.84
66752;SHT31;53663;42.676;23.238;2022-08-11T14:48:30;26.53;42.15
66752;SHT31;53663;42.676;23.238;2022-08-11T14:50:57;26.32;42.55
66752;SHT31;53663;42.676;23.238;2022-08-11T14:53:23;26.36;42.09
66752;SHT31;53663;42.676;23.238;2022-08-11T14:55:49;26.44;42.50
66752;SHT31;53663;42.676;23.238;2022-08-11T14:58:35;26.42;43.92
66752;SHT31;53663;42.676;23.238;2022-08-11T15:01:02;26.43;44.34
66752;SHT31;53663;42.676;23.238;2022-08-11T15:03:48;26.47;44.12
66752;SHT31;53663;42.676;23.238;2022-08-11T15:06:17;26.57;43.63
66752;SHT31;53663;42.676;23.238;2022-08-11T15:08:43;26.32;44.52
66752;SHT31;53663;42.676;23.238;2022-08-11T15:11:23;26.40;43.88
66752;SHT31;53663;42.676;23.238;2022-08-11T15:14:09;26.29;44.20
66752;SHT31;53663;42.676;23.238;2022-08-11T15:16:36;26.28;44.99
66752;SHT31;53663;42.676;23.238;2022-08-11T15:19:24;26.33;44.59
66752;SHT31;53663;42.676;23.238;2022-08-11T15:21:50;26.15;45.13
66752;SHT31;53663;42.676;23.238;2022-08-11T15:24:35;26.06;45.19
66752;SHT31;53663;42.676;23.238;2022-08-11T15:27:04;26.08;45.37
66752;SHT31;53663;42.676;23.238;2022-08-11T15:29:50;25.98;45.43
66752;SHT31;53663;42.676;23.238;2022-08-11T15:32:38;25.99;45.47
66752;SHT31;53663;42.676;23.238;2022-08-11T15:35:24;26.12;45.55
66752;SHT31;53663;42.676;23.238;2022-08-11T15:38:12;26.06;46.04
66752;SHT31;53663;42.676;23.238;2022-08-11T15:40:40;26.06;45.52
66752;SHT31;53663;42.676;23.238;2022-08-11T15:43:37;25.99;44.99
66752;SHT31;53663;42.676;23.238;2022-08-11T15:46:29;25.75;45.44
66752;SHT31;53663;42.676;23.238;2022-08-11T15:48:58;25.78;45.17
66752;SHT31;53663;42.676;23.238;2022-08-11T15:51:36;25.67;45.62
66752;SHT31;53663;42.676;23.238;2022-08-11T15:54:09;25.71;44.28
66752;SHT31;53663;42.676;23.238;2022-08-11T15:56:41;25.57;44.29
66752;SHT31;53663;42.676;23.238;2022-08-11T15:59:10;25.61;44.55
66752;SHT31;53663;42.676;23.238;2022-08-11T16:01:56;25.64;44.72
66752;SHT31;53663;42.676;23.238;2022-08-11T16:04:55;25.64;44.80
66752;SHT31;53663;42.676;23.238;2022-08-11T16:07:25;25.41;45.07
66752;SHT31;53663;42.676;23.238;2022-08-11T16:12:23;25.44;45.06
66752;SHT31;53663;42.676;23.238;2022-08-11T16:14:53;25.28;45.39
66752;SHT31;53663;42.676;23.238;2022-08-11T16:17:47;25.16;45.28
66752;SHT31;53663;42.676;23.238;2022-08-11T16:20:17;25.07;45.87
66752;SHT31;53663;42.676;23.238;2022-08-11T16:22:45;24.95;46.68
66752;SHT31;53663;42.676;23.238;2022-08-11T16:25:20;25.03;45.25
66752;SHT31;53663;42.676;23.238;2022-08-11T16:28:00;25.06;45.35
66752;SHT31;53663;42.676;23.238;2022-08-11T16:30:30;24.99;46.08
66752;SHT31;53663;42.676;23.238;2022-08-11T16:32:57;24.89;45.64
66752;SHT31;53663;42.676;23.238;2022-08-11T16:35:24;24.95;45.47
66752;SHT31;53663;42.676;23.238;2022-08-11T16:38:09;24.96;45.11
66752;SHT31;53663;42.676;23.238;2022-08-11T16:40:55;24.99;44.89
66752;SHT31;53663;42.676;23.238;2022-08-11T16:43:24;25.00;45.06
66752;SHT31;53663;42.676;23.238;2022-08-11T16:46:11;24.99;45.60
66752;SHT31;53663;42.676;23.238;2022-08-11T16:49:10;24.88;46.01
66752;SHT31;53663;42.676;23.238;2022-08-11T16:51:36;24.89;45.44
66752;SHT31;53663;42.676;23.238;2022-08-11T16:54:02;24.92;45.21
66752;SHT31;53663;42.676;23.238;2022-08-11T16:56:41;24.68;45.91
66752;SHT31;53663;42.676;23.238;2022-08-11T16:59:12;24.71;45.33
66752;SHT31;53663;42.676;23.238;2022-08-11T17:01:57;24.78;45.24
66752;SHT31;53663;42.676;23.238;2022-08-11T17:04:40;24.58;45.38
66752;SHT31;53663;42.676;23.238;2022-08-11T17:07:28;24.49;45.80
66752;SHT31;53663;42.676;23.238;2022-08-11T17:10:28;24.49;45.87
66752;SHT31;53663;42.676;23.238;2022-08-11T17:13:14;24.52;45.91
66752;SHT31;53663;42.676;23.238;2022-08-11T17:15:45;24.37;46.52
66752;SHT31;53663;42.676;23.238;2022-08-11T17:19:00;24.18;46.98
66752;SHT31;53663;42.676;23.238;2022-08-11T17:21:40;24.13;46.48
66752;SHT31;53663;42.676;23.238;2022-08-11T17:24:28;24.17;46.85
66752;SHT31;53663;42.676;23.238;2022-08-11T17:26:58;24.10;47.02
66752;SHT31;53663;42.676;23.238;2022-08-11T17:29:32;24.06;47.07
66752;SHT31;53663;42.676;23.238;2022-08-11T17:32:02;23.87;47.67
66752;SHT31;53663;42.676;23.238;2022-08-11T17:34:47;23.82;47.50
66752;SHT31;53663;42.676;23.238;2022-08-11T17:37:34;23.72;47.90
66752;SHT31;53663;42.676;23.238;2022-08-11T17:40:04;23.74;47.67
66752;SHT31;53663;42.676;23.238;2022-08-11T17:42:31;23.66;47.99
66752;SHT31;53663;42.676;23.238;2022-08-11T17:45:17;23.73;47.71
66752;SHT31;53663;42.676;23.238;2022-08-11T17:48:03;23.72;48.15
66752;SHT31;53663;42.676;23.238;2022-08-11T17:50:48;23.58;48.50
66752;SHT31;53663;42.676;23.238;2022-08-11T17:53:15;23.51;49.07
66752;SHT31;53663;42.676;23.238;2022-08-11T17:56:01;23.45;49.48
66752;SHT31;53663;42.676;23.238;2022-08-11T17:58:47;23.51;49.34
66752;SHT31;53663;42.676;23.238;2022-08-11T18:01:34;23.62;48.32
66752;SHT31;53663;42.676;23.238;2022-08-11T18:04:05;23.56;48.57
66752;SHT31;53663;42.676;23.238;2022-08-11T18:06:31;23.51;48.64
66752;SHT31;53663;42.676;23.238;2022-08-11T18:08:59;23.42;48.91
66752;SHT31;53663;42.676;23.238;2022-08-11T18:11:45;23.49;48.62
66752;SHT31;53663;42.676;23.238;2022-08-11T18:14:32;23.49;48.62
66752;SHT31;53663;42.676;23.238;2022-08-11T18:17:17;23.34;49.78
66752;SHT31;53663;42.676;23.238;2022-08-11T18:20:01;23.22;49.27
66752;SHT31;53663;42.676;23.238;2022-08-11T18:22:46;23.19;49.40
66752;SHT31;53663;42.676;23.238;2022-08-11T18:25:36;23.37;49.17
66752;SHT31;53663;42.676;23.238;2022-08-11T18:28:28;23.39;49.04
66752;SHT31;53663;42.676;23.238;2022-08-11T18:31:14;23.26;49.24
66752;SHT31;53663;42.676;23.238;2022-08-11T18:34:03;23.21;49.25
66752;SHT31;53663;42.676;23.238;2022-08-11T18:37:04;23.21;48.93
66752;SHT31;53663;42.676;23.238;2022-08-11T18:39:56;23.18;49.26
66752;SHT31;53663;42.676;23.238;2022-08-11T18:42:43;23.12;49.74
66752;SHT31;53663;42.676;23.238;2022-08-11T18:45:27;23.08;49.65
66752;SHT31;53663;42.676;23.238;2022-08-11T18:48:14;22.97;50.91
66752;SHT31;53663;42.676;23.238;2022-08-11T18:51:02;23.03;49.90
66752;SHT31;53663;42.676;23.238;2022-08-11T18:53:51;23.08;50.04
66752;SHT31;53663;42.676;23.238;2022-08-11T18:56:35;23.07;50.16
66752;SHT31;53663;42.676;23.238;2022-08-11T18:59:24;23.19;49.59
66752;SHT31;53663;42.676;23.238;2022-08-11T19:02:11;23.18;49.67
66752;SHT31;53663;42.676;23.238;2022-08-11T19:04:57;23.25;49.82
66752;SHT31;53663;42.676;23.238;2022-08-11T19:07:45;23.28;49.67
66752;SHT31;53663;42.676;23.238;2022-08-11T19:10:31;23.01;50.21
66752;SHT31;53663;42.676;23.238;2022-08-11T19:13:17;22.97;50.49
66752;SHT31;53663;42.676;23.238;2022-08-11T19:16:04;22.86;51.24
66752;SHT31;53663;42.676;23.238;2022-08-11T19:18:50;22.90;51.20
66752;SHT31;53663;42.676;23.238;2022-08-11T19:21:35;22.86;51.74
66752;SHT31;53663;42.676;23.238;2022-08-11T19:24:22;22.73;51.89
66752;SHT31;53663;42.676;23.238;2022-08-11T19:27:08;22.74;51.70
66752;SHT31;53663;42.676;23.238;2022-08-11T19:29:54;22.81;52.14
66752;SHT31;53663;42.676;23.238;2022-08-11T19:32:39;22.90;51.14
66752;SHT31;53663;42.676;23.238;2022-08-11T19:35:24;22.64;51.48
66752;SHT31;53663;42.676;23.238;2022-08-11T19:38:09;22.74;51.79
66752;SHT31;53663;42.676;23.238;2022-08-11T19:40:56;22.77;52.73
66752;SHT31;53663;42.676;23.238;2022-08-11T19:43:41;22.73;52.47
66752;SHT31;53663;42.676;23.238;2022-08-11T19:46:28;22.67;51.66
66752;SHT31;53663;42.676;23.238;2022-08-11T19:49:14;22.68;52.74
66752;SHT31;53663;42.676;23.238;2022-08-11T19:51:59;22.59;52.89
66752;SHT31;53663;42.676;23.238;2022-08-11T19:54:44;22.49;53.24
66752;SHT31;53663;42.676;23.238;2022-08-11T19:57:30;22.49;52.97
66752;SHT31;53663;42.676;23.238;2022-08-11T20:00:19;22.45;53.28
66752;SHT31;53663;42.676;23.238;2022-08-11T20:03:06;22.56;53.14
66752;SHT31;53663;42.676;23.238;2022-08-11T20:05:51;22.60;52.43
66752;SHT31;53663;42.676;23.238;2022-08-11T20:08:40;22.67;52.74
66752;SHT31;53663;42.676;23.238;2022-08-11T20:11:30;22.71;52.94